createdAt,value
2023-03-07T00:00:30.400Z,91.16
2023-03-07T00:01:02.275Z,91.42
2023-03-07T00:01:34.663Z,91.08
2023-03-07T00:02:06.445Z,90.85
2023-03-07T00:02:39.541Z,91.39
2023-03-07T00:03:13.113Z,91.01
2023-03-07T00:03:44.885Z,90.76
2023-03-07T00:04:16.734Z,91.48
2023-03-07T00:05:20.008Z,91.33
2023-03-07T00:06:05.148Z,91.00
2023-03-07T00:06:36.916Z,91.34
2023-03-07T00:07:08.651Z,91.20
2023-03-07T00:07:40.406Z,90.91
2023-03-07T00:08:12.589Z,91.01
2023-03-07T00:08:44.303Z,91.31
2023-03-07T00:09:16.764Z,91.22
2023-03-07T00:09:48.810Z,91.23
2023-03-07T00:10:20.597Z,91.26
2023-03-07T00:10:52.416Z,90.83
2023-03-07T00:11:24.458Z,91.23
2023-03-07T00:11:56.195Z,91.08
2023-03-07T00:12:27.963Z,90.95
2023-03-07T00:12:59.821Z,91.17
2023-03-07T00:13:34.786Z,90.58
2023-03-07T00:14:08.322Z,90.38
2023-03-07T00:14:40.052Z,90.95
2023-03-07T00:15:12.362Z,90.81
2023-03-07T00:15:44.067Z,91.14
2023-03-07T00:16:19.660Z,91.18
2023-03-07T00:16:51.887Z,90.55
2023-03-07T00:17:23.627Z,90.99
2023-03-07T00:17:55.527Z,90.89
2023-03-07T00:18:27.286Z,91.27
2023-03-07T00:18:59.128Z,90.68
2023-03-07T00:19:30.936Z,91.28
2023-03-07T00:20:06.184Z,91.12
2023-03-07T00:20:38.044Z,90.58
2023-03-07T00:21:13.370Z,90.80
2023-03-07T00:21:45.625Z,90.89
2023-03-07T00:22:17.406Z,90.83
2023-03-07T00:22:49.246Z,90.51
2023-03-07T00:23:21.036Z,90.80
2023-03-07T00:23:53.199Z,90.64
2023-03-07T00:24:24.994Z,90.80
2023-03-07T00:24:56.815Z,89.87
2023-03-07T00:25:28.582Z,90.42
2023-03-07T00:26:17.222Z,90.62
2023-03-07T00:26:48.928Z,90.67
2023-03-07T00:27:20.666Z,90.06
2023-03-07T00:27:52.408Z,90.62
2023-03-07T00:28:24.146Z,90.35
2023-03-07T00:28:56.189Z,90.25
2023-03-07T00:29:28.171Z,90.96
2023-03-07T00:30:00.987Z,91.43
2023-03-07T00:30:32.705Z,91.17
2023-03-07T00:31:07.850Z,91.44
2023-03-07T00:31:39.753Z,92.03
2023-03-07T00:32:11.559Z,91.94
2023-03-07T00:32:43.431Z,91.85
2023-03-07T00:33:15.179Z,91.92
2023-03-07T00:33:47.235Z,91.67
2023-03-07T00:34:19.218Z,91.44
2023-03-07T00:34:50.947Z,91.01
2023-03-07T00:35:22.705Z,91.12
2023-03-07T00:36:14.138Z,91.05
2023-03-07T00:36:45.891Z,91.12
2023-03-07T00:37:17.633Z,90.99
2023-03-07T00:37:49.349Z,90.43
2023-03-07T00:38:21.094Z,91.05
2023-03-07T00:38:53.771Z,90.70
2023-03-07T00:39:25.626Z,90.84
2023-03-07T00:39:57.350Z,90.60
2023-03-07T00:40:29.098Z,90.53
2023-03-07T00:41:03.496Z,90.70
2023-03-07T00:41:35.461Z,90.00
2023-03-07T00:42:07.525Z,89.93
2023-03-07T00:42:39.371Z,89.51
2023-03-07T00:43:11.221Z,89.99
2023-03-07T00:43:44.142Z,90.90
2023-03-07T00:44:15.904Z,90.39
2023-03-07T00:44:47.649Z,91.22
2023-03-07T00:45:19.446Z,91.22
2023-03-07T00:45:52.250Z,91.03
2023-03-07T00:46:25.686Z,91.44
2023-03-07T00:46:57.396Z,91.32
2023-03-07T00:47:29.241Z,91.91
2023-03-07T00:48:00.950Z,91.56
2023-03-07T00:48:38.518Z,91.75
2023-03-07T00:49:10.294Z,91.89
2023-03-07T00:49:42.065Z,91.20
2023-03-07T00:50:13.875Z,91.28
2023-03-07T00:50:46.233Z,91.63
2023-03-07T00:51:20.206Z,91.59
2023-03-07T00:51:52.057Z,91.34
2023-03-07T00:52:23.793Z,91.45
2023-03-07T00:52:55.517Z,91.09
2023-03-07T00:53:27.611Z,90.75
2023-03-07T00:53:59.436Z,90.92
2023-03-07T00:54:31.288Z,90.86
2023-03-07T00:55:03.149Z,91.16
2023-03-07T00:55:34.948Z,91.42
2023-03-07T00:56:12.650Z,91.34
2023-03-07T00:56:44.611Z,91.05
2023-03-07T00:57:16.565Z,91.28
2023-03-07T00:57:48.328Z,91.39
2023-03-07T00:58:20.098Z,91.30
2023-03-07T00:58:52.528Z,90.97
2023-03-07T00:59:24.274Z,91.29
2023-03-07T00:59:56.047Z,91.36
2023-03-07T01:00:27.747Z,91.58
2023-03-07T01:01:00.866Z,91.41
2023-03-07T01:01:32.801Z,90.94
2023-03-07T01:02:04.566Z,90.65
2023-03-07T01:02:36.361Z,90.47
2023-03-07T01:03:08.063Z,90.63
2023-03-07T01:03:40.012Z,90.70
2023-03-07T01:04:11.925Z,90.95
2023-03-07T01:04:43.748Z,90.76
2023-03-07T01:05:16.015Z,90.64
2023-03-07T01:05:48.525Z,90.20
2023-03-07T01:06:26.217Z,90.20
2023-03-07T01:06:57.970Z,90.88
2023-03-07T01:07:29.698Z,90.34
2023-03-07T01:08:01.508Z,89.76
2023-03-07T01:08:34.462Z,90.20
2023-03-07T01:09:08.311Z,90.23
2023-03-07T01:09:40.036Z,90.52
2023-03-07T01:10:12.016Z,90.68
2023-03-07T01:10:44.766Z,90.03
2023-03-07T01:11:17.268Z,89.86
2023-03-07T01:11:49.607Z,89.89
2023-03-07T01:12:22.691Z,89.70
2023-03-07T01:12:54.389Z,89.93
2023-03-07T01:13:26.427Z,89.25
2023-03-07T01:14:00.196Z,90.40
2023-03-07T01:14:31.948Z,90.08
2023-03-07T01:15:05.427Z,90.07
2023-03-07T01:15:37.995Z,89.75
2023-03-07T01:16:16.908Z,89.98
2023-03-07T01:16:48.723Z,89.79
2023-03-07T01:17:20.537Z,89.74
2023-03-07T01:17:52.316Z,89.84
2023-03-07T01:18:24.110Z,90.03
2023-03-07T01:18:59.797Z,89.60
2023-03-07T01:19:31.632Z,89.51
2023-03-07T01:20:07.254Z,89.09
2023-03-07T01:20:40.585Z,89.27
2023-03-07T01:21:17.183Z,89.64
2023-03-07T01:21:48.990Z,89.66
2023-03-07T01:22:20.738Z,89.54
2023-03-07T01:22:52.601Z,88.89
2023-03-07T01:23:24.406Z,88.94
2023-03-07T01:23:56.268Z,88.50
2023-03-07T01:24:28.076Z,89.48
2023-03-07T01:25:00.167Z,88.67
2023-03-07T01:25:32.248Z,88.64
2023-03-07T01:26:04.049Z,87.95
2023-03-07T01:26:35.931Z,87.86
2023-03-07T01:27:07.676Z,87.85
2023-03-07T01:27:40.076Z,87.17
2023-03-07T01:28:14.003Z,87.73
2023-03-07T01:28:46.805Z,87.53
2023-03-07T01:29:18.622Z,87.18
2023-03-07T01:29:50.391Z,86.92
2023-03-07T01:30:23.786Z,87.16
2023-03-07T01:31:00.151Z,87.25
2023-03-07T01:31:32.669Z,87.00
2023-03-07T01:32:04.772Z,87.20
2023-03-07T01:32:36.625Z,86.88
2023-03-07T01:33:09.936Z,87.11
2023-03-07T01:33:42.021Z,87.19
2023-03-07T01:34:13.933Z,86.67
2023-03-07T01:34:45.692Z,86.59
2023-03-07T01:35:17.406Z,87.03
2023-03-07T01:35:49.275Z,86.54
2023-03-07T01:36:30.206Z,87.12
2023-03-07T01:37:02.047Z,87.15
2023-03-07T01:37:33.991Z,87.38
2023-03-07T01:38:06.609Z,86.67
2023-03-07T01:38:38.431Z,87.08
2023-03-07T01:39:15.235Z,87.36
2023-03-07T01:39:47.077Z,86.61
2023-03-07T01:40:20.594Z,87.36
2023-03-07T01:40:52.340Z,86.86
2023-03-07T01:41:24.636Z,86.55
2023-03-07T01:41:56.382Z,87.14
2023-03-07T01:42:31.801Z,87.55
2023-03-07T01:43:23.486Z,87.12
2023-03-07T01:43:55.614Z,87.64
2023-03-07T01:44:27.542Z,87.39
2023-03-07T01:45:34.321Z,86.71
2023-03-07T01:46:18.307Z,87.03
2023-03-07T01:46:55.597Z,86.79
2023-03-07T01:47:27.845Z,86.88
2023-03-07T01:47:59.838Z,87.17
2023-03-07T01:48:31.910Z,87.00
2023-03-07T01:49:31.441Z,87.47
2023-03-07T01:50:09.422Z,87.24
2023-03-07T01:50:42.932Z,87.11
2023-03-07T01:51:15.248Z,87.76
2023-03-07T01:52:02.639Z,87.57
2023-03-07T01:52:40.034Z,87.33
2023-03-07T01:53:12.124Z,87.42
2023-03-07T01:53:44.620Z,87.60
2023-03-07T01:54:20.270Z,87.58
2023-03-07T01:54:56.286Z,87.28
2023-03-07T01:55:32.219Z,87.22
2023-03-07T01:56:06.476Z,87.19
2023-03-07T01:56:39.616Z,87.38
2023-03-07T01:57:11.385Z,87.60
2023-03-07T01:57:47.133Z,87.63
2023-03-07T01:58:18.984Z,87.23
2023-03-07T01:58:52.310Z,86.92
2023-03-07T01:59:31.747Z,87.51
2023-03-07T02:00:08.767Z,87.71
2023-03-07T02:00:43.087Z,87.79
2023-03-07T02:01:16.301Z,88.00
2023-03-07T02:01:50.499Z,88.12
2023-03-07T02:02:23.511Z,87.88
2023-03-07T02:03:10.378Z,88.11
2023-03-07T02:03:51.314Z,88.61
2023-03-07T02:04:32.555Z,87.95
2023-03-07T02:05:16.524Z,87.80
2023-03-07T02:05:55.636Z,88.22
2023-03-07T02:06:32.020Z,88.39
2023-03-07T02:07:03.927Z,88.29
2023-03-07T02:07:42.666Z,88.12
2023-03-07T02:08:16.500Z,88.33
2023-03-07T02:08:50.226Z,88.13
2023-03-07T02:09:24.505Z,88.32
2023-03-07T02:09:58.174Z,88.61
2023-03-07T02:10:33.238Z,88.53
2023-03-07T02:11:06.205Z,88.58
2023-03-07T02:11:43.208Z,88.93
2023-03-07T02:12:15.812Z,88.96
2023-03-07T02:12:49.178Z,88.54
2023-03-07T02:13:21.288Z,89.22
2023-03-07T02:13:53.134Z,88.71
2023-03-07T02:14:24.955Z,89.48
2023-03-07T02:14:57.002Z,89.10
2023-03-07T02:15:28.751Z,88.58
2023-03-07T02:16:03.344Z,88.33
2023-03-07T02:16:38.681Z,88.21
2023-03-07T02:17:10.581Z,87.98
2023-03-07T02:17:43.989Z,87.92
2023-03-07T02:18:21.022Z,88.30
2023-03-07T02:18:52.882Z,87.97
2023-03-07T02:19:57.805Z,87.70
2023-03-07T02:20:48.785Z,87.88
2023-03-07T02:21:51.308Z,87.57
2023-03-07T02:22:23.497Z,87.88
2023-03-07T02:22:56.151Z,87.42
2023-03-07T02:23:49.148Z,87.84
2023-03-07T02:24:39.448Z,87.15
2023-03-07T02:25:35.293Z,87.43
2023-03-07T02:26:31.097Z,87.68
2023-03-07T02:27:02.923Z,87.57
2023-03-07T02:27:37.790Z,87.67
2023-03-07T02:28:13.805Z,87.70
2023-03-07T02:28:48.244Z,87.62
2023-03-07T02:29:20.749Z,87.63
2023-03-07T02:29:53.140Z,88.02
2023-03-07T02:30:25.583Z,88.09
2023-03-07T02:31:03.131Z,87.89
2023-03-07T02:31:34.948Z,88.14
2023-03-07T02:32:07.605Z,88.40
2023-03-07T02:32:39.841Z,88.11
2023-03-07T02:33:11.557Z,87.98
2023-03-07T02:33:43.476Z,88.25
2023-03-07T02:34:29.772Z,88.06
2023-03-07T02:35:01.586Z,88.21
2023-03-07T02:35:33.377Z,87.76
2023-03-07T02:36:29.142Z,87.48
2023-03-07T02:37:10.272Z,87.87
2023-03-07T02:37:45.689Z,88.15
2023-03-07T02:38:17.499Z,88.55
2023-03-07T02:38:52.779Z,87.88
2023-03-07T02:39:30.371Z,88.03
2023-03-07T02:40:08.351Z,87.50
2023-03-07T02:40:40.154Z,87.54
2023-03-07T02:41:14.732Z,87.22
2023-03-07T02:41:46.751Z,87.11
2023-03-07T02:42:29.753Z,87.23
2023-03-07T02:43:09.720Z,87.30
2023-03-07T02:43:41.557Z,87.78
2023-03-07T02:44:13.443Z,87.62
2023-03-07T02:44:47.054Z,88.18
2023-03-07T02:45:19.848Z,89.09
2023-03-07T02:45:51.696Z,88.42
2023-03-07T02:46:23.623Z,88.21
2023-03-07T02:46:55.488Z,88.37
2023-03-07T02:47:28.103Z,88.49
2023-03-07T02:47:59.885Z,88.85
2023-03-07T02:48:31.886Z,87.71
2023-03-07T02:49:03.723Z,87.94
2023-03-07T02:49:36.423Z,88.38
2023-03-07T02:50:09.145Z,88.07
2023-03-07T02:50:40.899Z,87.59
2023-03-07T02:51:13.036Z,87.71
2023-03-07T02:51:44.814Z,87.56
2023-03-07T02:52:16.696Z,86.94
2023-03-07T02:52:49.770Z,88.04
2023-03-07T02:53:21.711Z,88.27
2023-03-07T02:53:53.465Z,88.28
2023-03-07T02:54:25.413Z,87.85
2023-03-07T02:54:58.520Z,87.59
2023-03-07T02:55:30.468Z,88.05
2023-03-07T02:56:02.336Z,88.06
2023-03-07T02:56:34.614Z,88.58
2023-03-07T02:57:06.417Z,88.74
2023-03-07T02:57:38.299Z,89.04
2023-03-07T02:58:10.127Z,88.96
2023-03-07T02:58:41.982Z,88.48
2023-03-07T02:59:13.700Z,88.57
2023-03-07T02:59:45.587Z,88.73
2023-03-07T03:00:17.664Z,88.58
2023-03-07T03:00:49.592Z,88.42
2023-03-07T03:01:21.391Z,88.46
2023-03-07T03:01:53.396Z,88.66
2023-03-07T03:02:25.233Z,88.82
2023-03-07T03:02:57.068Z,88.59
2023-03-07T03:03:28.883Z,88.82
2023-03-07T03:04:00.714Z,88.64
2023-03-07T03:04:32.618Z,88.81
2023-03-07T03:05:05.050Z,89.45
2023-03-07T03:05:36.827Z,89.39
2023-03-07T03:06:08.676Z,89.83
2023-03-07T03:06:40.420Z,89.35
2023-03-07T03:07:12.214Z,89.77
2023-03-07T03:07:43.959Z,89.73
2023-03-07T03:08:15.907Z,89.54
2023-03-07T03:08:47.636Z,89.77
2023-03-07T03:09:19.436Z,89.72
2023-03-07T03:09:51.184Z,89.56
2023-03-07T03:10:23.204Z,89.53
2023-03-07T03:10:55.904Z,89.79
2023-03-07T03:11:27.794Z,89.57
2023-03-07T03:11:59.654Z,89.71
2023-03-07T03:12:31.469Z,90.01
2023-03-07T03:13:03.195Z,89.43
2023-03-07T03:13:35.069Z,88.83
2023-03-07T03:14:06.940Z,89.00
2023-03-07T03:14:38.679Z,88.37
2023-03-07T03:15:10.976Z,88.28
2023-03-07T03:15:42.673Z,87.92
2023-03-07T03:16:14.471Z,87.78
2023-03-07T03:16:46.363Z,88.36
2023-03-07T03:17:18.788Z,88.29
2023-03-07T03:17:53.947Z,88.24
2023-03-07T03:18:28.766Z,88.09
2023-03-07T03:19:00.584Z,87.96
2023-03-07T03:19:32.362Z,87.85
2023-03-07T03:20:09.464Z,88.01
2023-03-07T03:20:42.413Z,88.43
2023-03-07T03:21:15.130Z,88.63
2023-03-07T03:21:48.004Z,88.06
2023-03-07T03:22:20.706Z,87.64
2023-03-07T03:22:53.173Z,87.86
2023-03-07T03:23:28.725Z,88.59
2023-03-07T03:24:10.585Z,89.15
2023-03-07T03:24:43.078Z,88.62
2023-03-07T03:25:15.298Z,88.50
2023-03-07T03:25:57.824Z,88.50
2023-03-07T03:26:29.650Z,88.39
2023-03-07T03:27:01.448Z,87.58
2023-03-07T03:27:33.531Z,87.73
2023-03-07T03:28:05.318Z,87.27
2023-03-07T03:28:38.911Z,87.85
2023-03-07T03:29:10.730Z,87.66
2023-03-07T03:29:42.502Z,86.86
2023-03-07T03:30:14.982Z,86.95
2023-03-07T03:30:46.687Z,87.19
2023-03-07T03:31:18.710Z,87.10
2023-03-07T03:31:50.868Z,86.72
2023-03-07T03:32:22.670Z,86.65
2023-03-07T03:32:54.410Z,87.00
2023-03-07T03:33:27.916Z,87.78
2023-03-07T03:33:59.764Z,87.76
2023-03-07T03:34:31.823Z,87.41
2023-03-07T03:35:04.610Z,87.87
2023-03-07T03:35:39.260Z,87.32
2023-03-07T03:36:14.949Z,87.51
2023-03-07T03:36:46.777Z,87.71
2023-03-07T03:37:18.964Z,87.53
2023-03-07T03:37:50.809Z,87.06
2023-03-07T03:38:22.637Z,86.68
2023-03-07T03:38:58.264Z,86.77
2023-03-07T03:39:29.981Z,86.38
2023-03-07T03:40:01.870Z,87.08
2023-03-07T03:40:33.625Z,86.93
2023-03-07T03:41:07.636Z,86.73
2023-03-07T03:41:39.420Z,85.79
2023-03-07T03:42:11.128Z,85.67
2023-03-07T03:42:46.147Z,86.34
2023-03-07T03:43:18.400Z,86.44
2023-03-07T03:43:50.542Z,87.02
2023-03-07T03:44:22.368Z,86.51
2023-03-07T03:44:54.082Z,86.57
2023-03-07T03:45:25.946Z,86.43
2023-03-07T03:45:58.827Z,86.13
2023-03-07T03:46:30.566Z,86.79
2023-03-07T03:47:02.574Z,86.11
2023-03-07T03:47:34.447Z,86.11
2023-03-07T03:48:07.821Z,85.84
2023-03-07T03:48:39.647Z,85.37
2023-03-07T03:49:14.241Z,85.68
2023-03-07T03:49:46.083Z,85.47
2023-03-07T03:50:18.464Z,86.19
2023-03-07T03:50:50.247Z,85.97
2023-03-07T03:51:23.884Z,86.63
2023-03-07T03:51:55.645Z,86.29
2023-03-07T03:52:27.571Z,85.82
2023-03-07T03:53:00.676Z,86.12
2023-03-07T03:53:34.464Z,86.22
2023-03-07T03:54:06.230Z,86.36
2023-03-07T03:54:38.086Z,86.22
2023-03-07T03:55:10.190Z,86.05
2023-03-07T03:55:42.129Z,86.21
2023-03-07T03:56:17.308Z,86.40
2023-03-07T03:56:49.103Z,86.06
2023-03-07T03:57:20.872Z,85.87
2023-03-07T03:57:52.588Z,86.25
2023-03-07T03:58:24.342Z,86.07
2023-03-07T03:58:57.837Z,86.17
2023-03-07T03:59:30.456Z,85.71
2023-03-07T04:00:05.002Z,86.32
2023-03-07T04:00:36.851Z,86.28
2023-03-07T04:01:11.276Z,86.42
2023-03-07T04:01:43.201Z,86.63
2023-03-07T04:02:15.313Z,86.35
2023-03-07T04:02:47.624Z,86.96
2023-03-07T04:03:19.453Z,86.71
2023-03-07T04:03:52.846Z,86.31
2023-03-07T04:04:24.779Z,86.58
2023-03-07T04:04:56.519Z,86.16
2023-03-07T04:05:28.301Z,86.52
2023-03-07T04:06:08.785Z,86.15
2023-03-07T04:06:40.978Z,85.87
2023-03-07T04:07:12.784Z,86.10
2023-03-07T04:07:44.717Z,86.41
2023-03-07T04:08:16.456Z,86.06
2023-03-07T04:08:48.784Z,86.60
2023-03-07T04:09:20.523Z,86.47
2023-03-07T04:09:52.306Z,86.35
2023-03-07T04:10:24.257Z,86.27
2023-03-07T04:10:56.067Z,86.51
2023-03-07T04:11:27.993Z,86.49
2023-03-07T04:12:00.001Z,86.20
2023-03-07T04:12:32.423Z,86.48
2023-03-07T04:13:04.230Z,86.32
2023-03-07T04:13:37.020Z,86.08
2023-03-07T04:14:08.784Z,86.03
2023-03-07T04:14:40.535Z,86.45
2023-03-07T04:15:12.632Z,86.17
2023-03-07T04:15:44.546Z,86.51
2023-03-07T04:16:17.580Z,85.90
2023-03-07T04:16:49.815Z,85.93
2023-03-07T04:17:21.752Z,85.88
2023-03-07T04:17:53.466Z,86.36
2023-03-07T04:18:25.661Z,86.63
2023-03-07T04:18:58.008Z,86.62
2023-03-07T04:19:29.860Z,86.49
2023-03-07T04:20:01.632Z,86.66
2023-03-07T04:20:33.392Z,86.87
2023-03-07T04:21:06.122Z,86.43
2023-03-07T04:21:37.949Z,86.37
2023-03-07T04:22:11.364Z,86.73
2023-03-07T04:22:43.582Z,86.50
2023-03-07T04:23:15.591Z,86.82
2023-03-07T04:23:49.709Z,87.17
2023-03-07T04:24:21.497Z,86.66
2023-03-07T04:24:53.306Z,86.70
2023-03-07T04:25:25.113Z,86.61
2023-03-07T04:25:59.295Z,87.03
2023-03-07T04:26:31.173Z,87.17
2023-03-07T04:27:02.959Z,86.67
2023-03-07T04:27:35.374Z,86.62
2023-03-07T04:28:07.151Z,86.71
2023-03-07T04:28:49.173Z,86.66
2023-03-07T04:29:21.077Z,86.60
2023-03-07T04:29:52.825Z,86.10
2023-03-07T04:30:24.750Z,86.33
2023-03-07T04:30:56.569Z,86.05
2023-03-07T04:31:29.097Z,85.80
2023-03-07T04:32:01.006Z,86.01
2023-03-07T04:32:33.033Z,85.77
2023-03-07T04:33:04.834Z,85.89
2023-03-07T04:33:36.637Z,86.55
2023-03-07T04:34:08.494Z,86.25
2023-03-07T04:34:40.310Z,86.13
2023-03-07T04:35:12.097Z,86.00
2023-03-07T04:35:46.094Z,85.94
2023-03-07T04:36:18.643Z,85.91
2023-03-07T04:36:50.705Z,85.81
2023-03-07T04:37:22.557Z,86.33
2023-03-07T04:37:54.386Z,86.40
2023-03-07T04:38:26.216Z,86.95
2023-03-07T04:38:57.993Z,86.54
2023-03-07T04:39:29.736Z,86.49
2023-03-07T04:40:01.474Z,86.98
2023-03-07T04:40:35.375Z,86.75
2023-03-07T04:41:07.411Z,86.70
2023-03-07T04:41:39.203Z,86.11
2023-03-07T04:42:11.369Z,86.81
2023-03-07T04:42:43.130Z,87.02
2023-03-07T04:43:14.881Z,86.91
2023-03-07T04:43:47.009Z,86.87
2023-03-07T04:44:18.826Z,86.92
2023-03-07T04:44:50.562Z,86.89
2023-03-07T04:45:22.290Z,86.74
2023-03-07T04:45:54.366Z,86.98
2023-03-07T04:46:27.309Z,86.94
2023-03-07T04:46:59.100Z,87.03
2023-03-07T04:47:30.911Z,87.45
2023-03-07T04:48:03.154Z,87.37
2023-03-07T04:48:35.263Z,87.37
2023-03-07T04:49:07.123Z,87.47
2023-03-07T04:49:38.938Z,88.06
2023-03-07T04:50:11.322Z,88.33
2023-03-07T04:50:43.094Z,87.72
2023-03-07T04:51:14.943Z,87.86
2023-03-07T04:51:46.719Z,88.08
2023-03-07T04:52:18.449Z,88.41
2023-03-07T04:52:50.657Z,87.98
2023-03-07T04:53:22.566Z,88.45
2023-03-07T04:53:54.263Z,88.32
2023-03-07T04:54:25.978Z,88.33
2023-03-07T04:54:57.722Z,88.08
2023-03-07T04:55:29.570Z,88.05
2023-03-07T04:56:04.193Z,88.23
2023-03-07T04:56:35.978Z,88.30
2023-03-07T04:57:08.825Z,88.32
2023-03-07T04:57:40.581Z,87.80
2023-03-07T04:58:13.758Z,87.89
2023-03-07T04:58:45.624Z,88.01
2023-03-07T04:59:17.397Z,87.72
2023-03-07T04:59:49.113Z,88.02
2023-03-07T05:00:20.999Z,87.29
2023-03-07T05:00:52.857Z,87.42
2023-03-07T05:01:24.561Z,87.40
2023-03-07T05:01:56.321Z,87.08
2023-03-07T05:02:28.051Z,87.46
2023-03-07T05:03:02.181Z,87.58
2023-03-07T05:03:35.617Z,87.18
2023-03-07T05:04:07.366Z,87.44
2023-03-07T05:04:39.359Z,87.01
2023-03-07T05:05:11.186Z,87.25
2023-03-07T05:05:43.070Z,87.13
2023-03-07T05:06:15.793Z,87.56
2023-03-07T05:06:47.640Z,87.62
2023-03-07T05:07:19.481Z,87.62
2023-03-07T05:07:51.231Z,87.35
2023-03-07T05:08:23.497Z,87.76
2023-03-07T05:08:55.307Z,88.02
2023-03-07T05:09:27.148Z,88.10
2023-03-07T05:09:59.117Z,87.93
2023-03-07T05:10:32.268Z,87.46
2023-03-07T05:11:04.058Z,87.68
2023-03-07T05:11:36.021Z,87.62
2023-03-07T05:12:08.043Z,87.71
2023-03-07T05:12:39.783Z,87.92
2023-03-07T05:13:11.758Z,87.92
2023-03-07T05:13:43.508Z,87.88
2023-03-07T05:14:15.358Z,88.20
2023-03-07T05:14:47.127Z,87.75
2023-03-07T05:15:19.044Z,87.82
2023-03-07T05:15:57.796Z,87.53
2023-03-07T05:16:29.615Z,87.74
2023-03-07T05:17:01.393Z,87.76
2023-03-07T05:17:33.115Z,87.68
2023-03-07T05:18:05.018Z,87.48
2023-03-07T05:18:36.788Z,87.36
2023-03-07T05:19:09.137Z,87.64
2023-03-07T05:19:41.025Z,87.25
2023-03-07T05:20:13.249Z,86.99
2023-03-07T05:20:45.268Z,87.54
2023-03-07T05:21:17.011Z,87.22
2023-03-07T05:21:49.332Z,87.39
2023-03-07T05:22:21.275Z,86.91
2023-03-07T05:22:53.067Z,87.18
2023-03-07T05:23:25.649Z,87.24
2023-03-07T05:23:58.132Z,87.06
2023-03-07T05:24:30.602Z,87.48
2023-03-07T05:25:02.636Z,87.23
2023-03-07T05:25:34.458Z,87.08
2023-03-07T05:26:06.306Z,87.58
2023-03-07T05:26:38.091Z,87.32
2023-03-07T05:27:11.094Z,86.85
2023-03-07T05:27:42.890Z,87.56
2023-03-07T05:28:16.985Z,87.34
2023-03-07T05:28:49.492Z,87.15
2023-03-07T05:29:21.201Z,87.21
2023-03-07T05:29:52.974Z,87.35
2023-03-07T05:30:24.743Z,87.56
2023-03-07T05:30:56.524Z,87.63
2023-03-07T05:31:28.749Z,87.70
2023-03-07T05:32:01.678Z,87.16
2023-03-07T05:32:33.508Z,87.33
2023-03-07T05:33:05.330Z,87.42
2023-03-07T05:33:37.179Z,87.64
2023-03-07T05:34:10.861Z,87.06
2023-03-07T05:34:42.601Z,87.26
2023-03-07T05:35:14.517Z,87.19
2023-03-07T05:35:47.100Z,87.20
2023-03-07T05:36:18.894Z,87.19
2023-03-07T05:36:50.778Z,87.16
2023-03-07T05:37:23.885Z,86.57
2023-03-07T05:37:55.767Z,86.74
2023-03-07T05:38:28.012Z,86.41
2023-03-07T05:38:59.844Z,85.91
2023-03-07T05:39:31.824Z,85.62
2023-03-07T05:40:09.748Z,85.44
2023-03-07T05:40:41.511Z,85.75
2023-03-07T05:41:13.284Z,85.83
2023-03-07T05:41:45.108Z,85.50
2023-03-07T05:42:17.060Z,85.81
2023-03-07T05:42:48.856Z,85.44
2023-03-07T05:43:21.025Z,85.28
2023-03-07T05:43:53.152Z,85.17
2023-03-07T05:44:24.963Z,85.50
2023-03-07T05:44:56.726Z,85.78
2023-03-07T05:45:28.520Z,85.71
2023-03-07T05:46:00.390Z,85.78
2023-03-07T05:46:32.283Z,85.56
2023-03-07T05:47:04.201Z,85.70
2023-03-07T05:47:36.082Z,85.59
2023-03-07T05:48:07.871Z,85.74
2023-03-07T05:48:39.807Z,85.96
2023-03-07T05:49:11.805Z,85.95
2023-03-07T05:49:43.643Z,85.98
2023-03-07T05:50:15.617Z,85.79
2023-03-07T05:50:47.408Z,85.83
2023-03-07T05:51:19.103Z,86.21
2023-03-07T05:51:51.426Z,85.78
2023-03-07T05:52:23.178Z,85.84
2023-03-07T05:52:55.145Z,85.82
2023-03-07T05:53:26.875Z,86.48
2023-03-07T05:53:58.945Z,85.90
2023-03-07T05:54:30.771Z,86.21
2023-03-07T05:55:02.557Z,86.15
2023-03-07T05:55:34.967Z,85.96
2023-03-07T05:56:07.099Z,86.30
2023-03-07T05:56:38.982Z,86.04
2023-03-07T05:57:10.723Z,86.06
2023-03-07T05:57:42.512Z,85.54
2023-03-07T05:58:14.358Z,85.48
2023-03-07T05:58:46.147Z,85.87
2023-03-07T05:59:18.081Z,85.89
2023-03-07T05:59:49.930Z,86.13
2023-03-07T06:00:22.280Z,85.82
2023-03-07T06:00:54.316Z,85.90
2023-03-07T06:01:26.786Z,85.90
2023-03-07T06:01:58.600Z,86.04
2023-03-07T06:02:30.440Z,85.59
2023-03-07T06:03:04.241Z,85.96
2023-03-07T06:03:36.227Z,85.58
2023-03-07T06:04:08.329Z,85.44
2023-03-07T06:04:41.872Z,86.12
2023-03-07T06:05:14.820Z,85.54
2023-03-07T06:05:50.260Z,85.53
2023-03-07T06:06:22.059Z,86.23
2023-03-07T06:06:53.950Z,86.70
2023-03-07T06:07:27.095Z,86.26
2023-03-07T06:07:58.845Z,86.58
2023-03-07T06:08:30.647Z,86.34
2023-03-07T06:09:04.648Z,86.24
2023-03-07T06:09:36.407Z,86.38
2023-03-07T06:10:08.825Z,86.54
2023-03-07T06:10:40.685Z,86.94
2023-03-07T06:11:12.552Z,86.40
2023-03-07T06:11:44.394Z,86.39
2023-03-07T06:12:16.209Z,86.61
2023-03-07T06:12:52.304Z,86.77
2023-03-07T06:13:25.420Z,87.03
2023-03-07T06:13:57.223Z,86.99
2023-03-07T06:14:31.164Z,87.40
2023-03-07T06:15:03.506Z,86.70
2023-03-07T06:15:35.357Z,86.62
2023-03-07T06:16:07.473Z,86.63
2023-03-07T06:16:39.319Z,86.52
2023-03-07T06:17:11.240Z,86.60
2023-03-07T06:17:43.093Z,86.22
2023-03-07T06:18:15.074Z,85.86
2023-03-07T06:18:46.806Z,85.61
2023-03-07T06:19:18.663Z,85.24
2023-03-07T06:19:51.433Z,85.06
2023-03-07T06:20:23.167Z,85.04
2023-03-07T06:21:00.921Z,85.64
2023-03-07T06:21:32.706Z,85.06
2023-03-07T06:22:04.661Z,85.79
2023-03-07T06:22:38.340Z,85.48
2023-03-07T06:23:12.975Z,84.95
2023-03-07T06:23:45.739Z,85.31
2023-03-07T06:24:17.561Z,85.49
2023-03-07T06:24:49.345Z,85.38
2023-03-07T06:25:21.917Z,85.85
2023-03-07T06:25:54.082Z,85.64
2023-03-07T06:26:25.813Z,85.39
2023-03-07T06:26:57.887Z,85.43
2023-03-07T06:27:33.421Z,85.15
2023-03-07T06:28:05.288Z,85.11
2023-03-07T06:28:37.156Z,85.04
2023-03-07T06:29:08.902Z,85.27
2023-03-07T06:29:40.695Z,85.59
2023-03-07T06:30:12.960Z,86.17
2023-03-07T06:30:44.655Z,85.76
2023-03-07T06:31:18.695Z,85.67
2023-03-07T06:31:51.183Z,85.57
2023-03-07T06:32:23.066Z,85.88
2023-03-07T06:32:55.633Z,85.71
2023-03-07T06:33:27.697Z,85.94
2023-03-07T06:33:59.448Z,85.84
2023-03-07T06:34:31.205Z,85.74
2023-03-07T06:35:03.463Z,85.67
2023-03-07T06:35:38.309Z,86.01
2023-03-07T06:36:13.094Z,86.10
2023-03-07T06:36:44.959Z,86.03
2023-03-07T06:37:17.057Z,86.19
2023-03-07T06:37:51.064Z,85.91
2023-03-07T06:38:22.885Z,86.09
2023-03-07T06:38:54.670Z,86.53
2023-03-07T06:39:27.957Z,85.85
2023-03-07T06:40:00.461Z,85.97
2023-03-07T06:40:32.409Z,85.55
2023-03-07T06:41:04.564Z,85.58
2023-03-07T06:41:36.397Z,86.00
2023-03-07T06:42:08.338Z,86.01
2023-03-07T06:42:40.248Z,86.36
2023-03-07T06:43:12.575Z,86.42
2023-03-07T06:43:44.340Z,86.27
2023-03-07T06:44:19.051Z,86.70
2023-03-07T06:44:51.088Z,86.54
2023-03-07T06:45:22.926Z,86.57
2023-03-07T06:45:58.061Z,86.13
2023-03-07T06:46:30.070Z,86.30
2023-03-07T06:47:01.922Z,86.28
2023-03-07T06:47:33.722Z,86.25
2023-03-07T06:48:05.758Z,85.90
2023-03-07T06:48:37.568Z,85.54
2023-03-07T06:49:09.714Z,84.35
2023-03-07T06:49:41.567Z,84.68
2023-03-07T06:50:13.753Z,84.80
2023-03-07T06:50:46.218Z,84.28
2023-03-07T06:51:18.544Z,84.38
2023-03-07T06:51:50.412Z,84.08
2023-03-07T06:52:23.212Z,83.68
2023-03-07T06:52:55.063Z,83.35
2023-03-07T06:53:26.840Z,83.44
2023-03-07T06:53:59.010Z,83.05
2023-03-07T06:54:30.916Z,83.65
2023-03-07T06:55:03.608Z,83.44
2023-03-07T06:55:35.399Z,83.99
2023-03-07T06:56:07.237Z,83.51
2023-03-07T06:56:38.991Z,83.41
2023-03-07T06:57:10.946Z,83.64
2023-03-07T06:57:42.871Z,83.38
2023-03-07T06:58:14.683Z,82.94
2023-03-07T06:58:46.432Z,82.77
2023-03-07T06:59:18.173Z,83.26
2023-03-07T06:59:49.894Z,82.33
2023-03-07T07:00:22.766Z,82.80
2023-03-07T07:00:54.681Z,82.75
2023-03-07T07:01:26.645Z,83.08
2023-03-07T07:01:58.567Z,83.19
2023-03-07T07:02:30.581Z,83.37
2023-03-07T07:03:02.608Z,83.75
2023-03-07T07:03:34.679Z,84.06
2023-03-07T07:04:06.534Z,84.45
2023-03-07T07:04:38.319Z,84.32
2023-03-07T07:05:10.074Z,84.72
2023-03-07T07:05:41.991Z,84.07
2023-03-07T07:06:13.746Z,84.96
2023-03-07T07:06:45.501Z,85.01